Time;durP1;ratioP1;P1;durP2;ratioP2;P2;SDS_P1;SDS_P2;PMS_P1;PMS_P2;Temp;Humidity;BMP_temperature;BMP_pressure;BME280_temperature;BME280_humidity;BME280_pressure;Samples;Min_cycle;Max_cycle;Signal;HPM_P1;HPM_P2
2022/03/22 00:00:19;;;;;;;198.82;175.88;;;;;;;15.86;29.08;94916.13;5115398;27;20050;-62
2022/03/22 00:03:05;;;;;;;197.52;173.32;;;;;;;15.86;29.18;94923.47;5112061;27;20047;-61
2022/03/22 00:05:32;;;;;;;194.15;172.25;;;;;;;15.84;29.09;94923.13;5115110;27;20027;-62
2022/03/22 00:08:00;;;;;;;197.82;173.85;;;;;;;15.84;29.22;94921.19;5111650;27;20134;-62
2022/03/22 00:10:28;;;;;;;207.80;181.47;;;;;;;15.83;29.19;94916.97;5117240;27;22230;-62
2022/03/22 00:12:54;;;;;;;211.45;181.65;;;;;;;15.80;29.03;94921.25;5105477;27;20122;-61
2022/03/22 00:15:19;;;;;;;193.68;172.10;;;;;;;15.82;29.13;94921.59;5111611;27;20126;-62
2022/03/22 00:17:45;;;;;;;207.80;181.88;;;;;;;15.80;29.24;94917.81;5114991;27;20058;-62
2022/03/22 00:20:11;;;;;;;205.02;178.65;;;;;;;15.80;29.06;94928.59;5113652;27;20680;-62
2022/03/22 00:22:38;;;;;;;194.98;169.00;;;;;;;15.81;29.00;94924.72;5115808;27;20398;-61
2022/03/22 00:25:06;;;;;;;207.15;177.80;;;;;;;15.80;29.13;94928.59;5112764;27;20044;-61
2022/03/22 00:27:50;;;;;;;195.85;170.90;;;;;;;15.79;28.87;94922.44;5113165;27;20050;-62
2022/03/22 00:30:17;;;;;;;197.00;169.43;;;;;;;15.79;28.94;94921.69;5117764;27;20027;-62
2022/03/22 00:32:43;;;;;;;199.95;174.88;;;;;;;15.78;29.23;94920.16;5108249;27;20356;-62
2022/03/22 00:35:08;;;;;;;196.50;174.48;;;;;;;15.78;29.12;94920.16;5115444;27;20037;-62
2022/03/22 00:37:37;;;;;;;194.18;170.50;;;;;;;15.77;29.18;94924.78;5111051;27;20047;-61
2022/03/22 00:40:07;;;;;;;197.32;172.82;;;;;;;15.78;28.75;94918.22;5111787;27;20088;-61
2022/03/22 00:42:32;;;;;;;195.90;172.65;;;;;;;15.77;29.37;94919.41;5112859;27;20479;-62
2022/03/22 00:44:58;;;;;;;205.82;180.50;;;;;;;15.77;29.33;94924.03;5107790;27;20134;-62
2022/03/22 00:47:24;;;;;;;195.38;167.75;;;;;;;15.76;29.07;94920.56;5112145;27;20056;-62
2022/03/22 00:49:49;;;;;;;194.82;171.00;;;;;;;15.77;29.34;94922.09;5112339;27;20122;-61
2022/03/22 00:52:15;;;;;;;198.38;172.30;;;;;;;15.76;29.10;94915.19;5115236;27;20042;-61
2022/03/22 00:54:40;;;;;;;196.60;169.48;;;;;;;15.76;29.24;94920.56;5105091;27;20043;-62
2022/03/22 00:57:06;;;;;;;194.93;172.68;;;;;;;15.74;29.39;94920.22;5110617;27;20108;-62
2022/03/22 01:02:15;;;;;;;187.82;161.75;;;;;;;15.75;29.27;94921.00;5103420;27;20052;-62
2022/03/22 01:04:43;;;;;;;198.65;169.13;;;;;;;15.74;29.12;94909.44;5114036;27;20515;-62
2022/03/22 01:07:08;;;;;;;188.20;163.68;;;;;;;15.74;29.15;94914.06;5115178;27;20038;-62
2022/03/22 01:09:34;;;;;;;187.10;161.95;;;;;;;15.75;29.26;94910.19;5114418;27;20040;-63
2022/03/22 01:11:59;;;;;;;198.00;169.52;;;;;;;15.74;29.42;94914.06;5108555;27;20048;-61
2022/03/22 01:14:28;;;;;;;186.02;159.57;;;;;;;15.73;29.28;94916.00;5120510;27;20079;-62
2022/03/22 01:16:57;;;;;;;193.00;166.02;;;;;;;15.73;29.27;94916.00;5111689;27;20113;-61
2022/03/22 01:19:22;;;;;;;186.57;157.13;;;;;;;15.74;29.26;94912.13;5116466;27;20051;-62
2022/03/22 01:21:49;;;;;;;195.23;168.98;;;;;;;15.73;29.19;94913.31;5113220;27;20511;-62
2022/03/22 01:24:15;;;;;;;193.90;166.50;;;;;;;15.73;29.32;94907.91;5108653;27;20083;-62
2022/03/22 01:26:41;;;;;;;195.85;168.25;;;;;;;15.73;29.32;94910.63;5112078;27;20047;-62
2022/03/22 01:29:07;;;;;;;188.20;161.73;;;;;;;15.74;29.19;94914.06;5108790;27;20522;-62
2022/03/22 01:31:34;;;;;;;197.13;167.23;;;;;;;15.73;29.38;94909.84;5111386;27;20039;-61
2022/03/22 01:33:59;;;;;;;184.52;158.32;;;;;;;15.72;29.23;94908.34;5104339;27;20051;-61
2022/03/22 01:36:25;;;;;;;195.63;169.13;;;;;;;15.71;29.12;94910.28;5111045;27;20525;-62
2022/03/22 01:38:52;;;;;;;190.85;165.82;;;;;;;15.71;29.19;94910.28;5113248;27;20058;-62
2022/03/22 01:41:18;;;;;;;189.80;162.65;;;;;;;15.72;29.11;94911.78;5108298;27;20040;-62
2022/03/22 01:43:43;;;;;;;190.68;162.75;;;;;;;15.71;29.16;94901.44;5108330;27;20092;-62
2022/03/22 01:46:12;;;;;;;189.05;162.63;;;;;;;15.70;29.25;94894.50;5108046;27;20059;-62
2022/03/22 01:48:37;;;;;;;192.48;164.05;;;;;;;15.70;29.23;94902.59;5104384;27;20044;-61
2022/03/22 01:51:03;;;;;;;201.20;172.27;;;;;;;15.70;29.10;94900.66;5096488;27;20051;-62
2022/03/22 01:53:31;;;;;;;187.48;161.85;;;;;;;15.69;28.93;94901.84;5100593;27;20494;-61
2022/03/22 01:55:57;;;;;;;185.95;160.23;;;;;;;15.70;29.06;94900.66;5117378;27;20058;-62
2022/03/22 01:58:24;;;;;;;188.70;162.02;;;;;;;15.70;29.14;94891.81;5109271;27;20081;-62
2022/03/22 02:05:51;;;;;;;189.15;163.98;;;;;;;15.70;29.16;94891.81;5116658;27;20054;-62
2022/03/22 02:06:23;;;;;;;195.65;165.65;;;;;;;15.68;29.34;94891.47;5111607;27;20047;-62
2022/03/22 02:08:48;;;;;;;202.27;169.30;;;;;;;15.67;29.37;94890.72;5103186;27;20043;-62
2022/03/22 02:11:13;;;;;;;188.05;160.18;;;;;;;15.69;29.00;94893.00;5109114;27;20092;-62
2022/03/22 02:13:39;;;;;;;184.60;159.02;;;;;;;15.67;29.13;94895.34;5105820;27;20040;-61
2022/03/22 02:16:05;;;;;;;184.57;158.68;;;;;;;15.66;29.02;94893.81;5117455;27;20036;-61
2022/03/22 02:18:31;;;;;;;187.55;160.13;;;;;;;15.66;29.31;94891.88;5106314;27;20047;-62
2022/03/22 02:20:59;;;;;;;189.65;159.95;;;;;;;15.65;29.21;94884.97;5112422;27;20044;-62
2022/03/22 02:23:48;;;;;;;188.57;161.07;;;;;;;15.66;29.02;94880.34;5109833;27;20507;-60
2022/03/22 02:26:14;;;;;;;187.80;160.73;;;;;;;15.66;29.09;94883.03;5109943;27;20047;-62
2022/03/22 02:28:42;;;;;;;190.95;164.63;;;;;;;15.67;29.13;94887.25;5107802;27;20055;-62
2022/03/22 02:31:08;;;;;;;196.60;168.93;;;;;;;15.66;29.20;94881.09;5110521;27;20477;-60
2022/03/22 02:33:33;;;;;;;187.68;161.20;;;;;;;15.64;29.09;94869.97;5107129;27;20100;-62
2022/03/22 02:35:59;;;;;;;191.20;163.98;;;;;;;15.65;29.29;94873.44;5108483;27;20059;-62
2022/03/22 02:38:24;;;;;;;180.20;155.30;;;;;;;15.64;29.23;94869.22;5115796;27;20898;-62
2022/03/22 02:40:50;;;;;;;192.57;165.07;;;;;;;15.64;29.24;94869.22;5109694;27;20564;-62
2022/03/22 02:43:16;;;;;;;193.50;164.65;;;;;;;15.63;29.22;94865.00;5102238;27;20051;-62
2022/03/22 02:45:41;;;;;;;186.57;161.60;;;;;;;15.63;29.25;94873.09;5116443;27;20130;-61
2022/03/22 02:48:07;;;;;;;186.73;162.55;;;;;;;15.62;29.26;94874.25;5109333;27;20176;-62
2022/03/22 02:50:32;;;;;;;184.32;157.70;;;;;;;15.61;29.19;94876.19;5113968;27;20039;-62
2022/03/22 02:53:00;;;;;;;192.32;171.30;;;;;;;15.62;29.25;94872.31;5102910;27;20047;-60
2022/03/22 02:55:26;;;;;;;186.65;160.07;;;;;;;15.60;29.08;94871.25;5109270;27;20058;-62
2022/03/22 02:57:51;;;;;;;186.07;159.77;;;;;;;15.62;29.05;94876.97;5110690;27;20414;-61
2022/03/22 03:00:17;;;;;;;185.98;158.93;;;;;;;15.62;29.11;94875.03;5113576;27;20514;-61
2022/03/22 03:02:48;;;;;;;184.65;160.25;;;;;;;15.63;28.99;94881.19;5105931;27;20045;-61
2022/03/22 03:05:14;;;;;;;191.40;163.60;;;;;;;15.63;29.03;94876.53;5106722;27;20171;-62
2022/03/22 03:07:40;;;;;;;185.05;159.13;;;;;;;15.64;29.15;94880.00;5108236;27;20035;-62
2022/03/22 03:10:07;;;;;;;194.43;165.10;;;;;;;15.62;29.08;94877.72;5108354;27;20050;-61
2022/03/22 03:12:33;;;;;;;190.07;163.95;;;;;;;15.62;29.28;94877.72;5111294;27;20039;-61
2022/03/22 03:14:59;;;;;;;188.43;161.20;;;;;;;15.63;29.18;94883.88;5110143;27;20039;-62
2022/03/22 03:17:24;;;;;;;186.00;162.00;;;;;;;15.62;28.93;94883.09;5109767;27;20055;-61
2022/03/22 03:19:50;;;;;;;189.23;161.35;;;;;;;15.62;29.03;94883.09;5110539;27;20126;-61
2022/03/22 03:22:15;;;;;;;189.63;162.20;;;;;;;15.63;28.90;94884.63;5106082;27;20130;-61
2022/03/22 03:24:41;;;;;;;185.68;161.38;;;;;;;15.64;29.19;94880.75;5104646;27;20047;-61
2022/03/22 03:27:06;;;;;;;190.75;160.52;;;;;;;15.64;29.00;94882.69;5104688;27;20456;-61
2022/03/22 03:29:32;;;;;;;198.02;173.52;;;;;;;15.65;28.86;94886.91;5104341;27;20039;-62
2022/03/22 03:31:58;;;;;;;197.75;170.77;;;;;;;15.63;29.03;94884.63;5110061;27;20970;-60
2022/03/22 03:34:23;;;;;;;192.02;166.18;;;;;;;15.62;28.95;94877.72;5107648;27;20043;-61
2022/03/22 03:36:49;;;;;;;187.40;161.70;;;;;;;15.64;28.96;94888.09;5107640;27;20602;-60
2022/03/22 03:39:15;;;;;;;203.32;175.15;;;;;;;15.63;28.89;94895.41;5108048;27;20052;-62
2022/03/22 03:41:55;;;;;;;191.50;164.95;;;;;;;15.62;28.92;94891.19;5108182;27;20046;-62
2022/03/22 03:47:11;;;;;;;190.57;158.45;;;;;;;15.62;28.83;94885.03;5109486;27;19928;-62
2022/03/22 03:49:42;;;;;;;187.43;160.82;;;;;;;15.63;28.83;94903.50;5111454;27;20051;-62
2022/03/22 03:52:10;;;;;;;197.88;166.55;;;;;;;15.62;28.77;94901.97;5109655;27;20051;-62
2022/03/22 03:54:36;;;;;;;190.20;164.38;;;;;;;15.64;28.99;94901.56;5118148;27;20043;-62
2022/03/22 03:57:03;;;;;;;189.40;163.10;;;;;;;15.62;29.37;94891.19;5110715;27;20062;-62
2022/03/22 03:59:28;;;;;;;189.18;165.25;;;;;;;15.62;28.76;94893.13;5110941;27;20039;-62
2022/03/22 04:01:54;;;;;;;192.82;167.82;;;;;;;15.62;28.98;94893.91;5108700;27;20712;-62
2022/03/22 04:04:20;;;;;;;192.70;167.15;;;;;;;15.61;28.74;94900.47;5111837;27;20047;-61
2022/03/22 04:06:47;;;;;;;188.55;163.80;;;;;;;15.61;28.72;94891.63;5117269;27;20071;-61
2022/03/22 04:09:14;;;;;;;201.65;174.50;;;;;;;15.61;28.93;94886.97;5112411;27;20114;-62
2022/03/22 04:11:41;;;;;;;192.55;167.32;;;;;;;15.60;28.87;94888.16;5115433;27;20044;-62
2022/03/22 04:14:06;;;;;;;193.80;167.40;;;;;;;15.59;28.92;94886.66;5108518;27;20039;-62
2022/03/22 04:16:32;;;;;;;192.30;165.73;;;;;;;15.60;28.90;94887.44;5112239;27;20080;-62
2022/03/22 04:18:58;;;;;;;195.45;168.52;;;;;;;15.59;28.84;94894.75;5118266;27;20627;-62
2022/03/22 04:21:23;;;;;;;194.65;169.25;;;;;;;15.59;28.99;94894.75;5112308;27;20050;-62
2022/03/22 04:24:09;;;;;;;190.32;163.35;;;;;;;15.60;28.87;94882.03;5120182;27;20108;-61
2022/03/22 04:26:53;;;;;;;187.60;160.60;;;;;;;15.59;28.90;94892.06;5115465;27;20038;-62
2022/03/22 04:34:47;;;;;;;185.45;158.10;;;;;;;15.58;28.95;94889.78;5118294;27;20047;-63
2022/03/22 04:37:15;;;;;;;191.20;164.70;;;;;;;15.58;28.89;94895.16;5118420;27;20457;-62
2022/03/22 04:39:42;;;;;;;193.07;165.90;;;;;;;15.57;28.95;94889.03;5114556;27;20096;-62
2022/03/22 04:42:08;;;;;;;201.18;174.45;;;;;;;15.59;28.95;94891.28;5117324;27;20063;-62
2022/03/22 04:44:34;;;;;;;197.10;170.18;;;;;;;15.57;28.95;94885.56;5114275;27;20047;-62
2022/03/22 04:47:00;;;;;;;204.52;178.75;;;;;;;15.58;28.60;94887.84;5121200;27;20163;-61
2022/03/22 04:49:27;;;;;;;191.68;165.95;;;;;;;15.57;28.93;94891.72;5114945;27;20071;-62
2022/03/22 04:57:23;;;;;;;192.63;165.77;;;;;;;15.58;28.94;94892.47;5111899;27;20501;-63
2022/03/22 04:59:49;;;;;;;186.63;160.10;;;;;;;15.57;28.86;94894.41;5116373;27;20108;-62
2022/03/22 05:02:15;;;;;;;205.95;174.48;;;;;;;15.57;28.92;94894.41;5110070;27;20135;-61
2022/03/22 05:04:42;;;;;;;190.25;164.50;;;;;;;15.58;28.92;94892.47;5112931;27;20051;-61
2022/03/22 05:07:07;;;;;;;191.45;163.18;;;;;;;15.58;28.79;94895.16;5120110;27;20039;-62
2022/03/22 05:09:33;;;;;;;194.63;168.77;;;;;;;15.58;29.06;94905.97;5116937;27;20051;-61
2022/03/22 05:12:00;;;;;;;205.82;177.93;;;;;;;15.59;28.65;94905.53;5116579;27;20046;-60
2022/03/22 05:14:26;;;;;;;208.55;180.23;;;;;;;15.60;28.81;94903.59;5110610;27;20130;-61
2022/03/22 05:16:52;;;;;;;195.90;169.82;;;;;;;15.60;29.00;94896.25;5120991;27;20458;-62
2022/03/22 05:19:18;;;;;;;250.57;224.30;;;;;;;15.61;28.74;94905.84;5112284;27;20436;-64
2022/03/22 05:21:45;;;;;;;206.82;173.27;;;;;;;15.61;28.79;94911.25;5121522;27;20046;-61
2022/03/22 05:24:10;;;;;;;241.38;215.90;;;;;;;15.62;28.69;94912.00;5115315;27;20039;-62
2022/03/22 05:26:36;;;;;;;210.50;184.85;;;;;;;15.62;28.78;94906.63;5122061;27;20046;-63
2022/03/22 05:29:04;;;;;;;265.35;238.27;;;;;;;15.62;28.71;94910.06;5114800;27;20063;-63
2022/03/22 05:31:31;;;;;;;220.57;195.88;;;;;;;15.63;28.83;94914.28;5111938;27;20095;-63
2022/03/22 05:33:58;;;;;;;188.20;160.75;;;;;;;15.64;28.56;94923.13;5109637;27;20543;-62
2022/03/22 05:36:24;;;;;;;190.93;165.73;;;;;;;15.64;28.58;94913.13;5120524;27;20367;-62
2022/03/22 05:38:49;;;;;;;186.27;161.35;;;;;;;15.65;28.71;94911.94;5125323;27;20043;-62
2022/03/22 05:41:15;;;;;;;187.68;162.27;;;;;;;15.66;28.44;94921.53;5114245;27;20043;-62
2022/03/22 05:43:42;;;;;;;187.68;158.18;;;;;;;15.68;28.55;94926.53;5116535;27;20487;-62
2022/03/22 05:46:09;;;;;;;191.85;166.30;;;;;;;15.68;28.58;94921.13;5125017;27;20100;-62
2022/03/22 05:48:38;;;;;;;185.85;158.73;;;;;;;15.68;28.54;94931.91;5122856;27;20052;-63
2022/03/22 05:51:04;;;;;;;201.85;173.40;;;;;;;15.70;28.64;94934.97;5113896;27;20476;-62
2022/03/22 05:53:29;;;;;;;198.13;169.70;;;;;;;15.68;28.61;94932.69;5101888;27;20063;-61
2022/03/22 05:55:55;;;;;;;192.50;167.07;;;;;;;15.70;28.21;94932.25;5103630;27;20047;-63
2022/03/22 05:58:21;;;;;;;190.48;165.30;;;;;;;15.71;28.44;94933.78;5126713;27;20054;-62
2022/03/22 06:00:46;;;;;;;187.45;161.85;;;;;;;15.71;28.36;94931.84;5119962;27;20051;-62
2022/03/22 06:03:12;;;;;;;193.93;167.02;;;;;;;15.72;28.36;94936.06;5111086;27;20039;-61
2022/03/22 06:05:38;;;;;;;187.45;160.90;;;;;;;15.73;28.38;94926.81;5120181;27;20047;-62
2022/03/22 06:08:04;;;;;;;185.18;159.80;;;;;;;15.73;28.39;94929.50;5122676;27;20472;-61
2022/03/22 06:10:29;;;;;;;183.63;159.50;;;;;;;15.74;28.36;94928.31;5115942;27;20032;-62
2022/03/22 06:12:57;;;;;;;180.38;156.52;;;;;;;15.73;28.41;94920.66;5124083;27;20050;-63
2022/03/22 06:15:25;;;;;;;211.35;180.43;;;;;;;15.75;28.48;94927.16;5115359;27;20383;-62
2022/03/22 06:17:51;;;;;;;187.13;160.32;;;;;;;15.75;28.58;94929.09;5117773;27;20047;-62
2022/03/22 06:20:19;;;;;;;193.68;166.57;;;;;;;15.75;28.48;94931.78;5112983;27;20051;-62
2022/03/22 06:22:45;;;;;;;184.88;158.23;;;;;;;15.74;28.42;94928.31;5110478;27;20047;-62
2022/03/22 06:25:13;;;;;;;187.32;162.73;;;;;;;15.75;28.64;94927.16;5118297;27;20040;-61
2022/03/22 06:27:39;;;;;;;185.40;159.32;;;;;;;15.76;28.38;94927.91;5123590;27;20050;-62
2022/03/22 06:30:06;;;;;;;185.05;161.50;;;;;;;15.76;28.52;94933.31;5107660;27;20059;-63
2022/03/22 06:32:56;;;;;;;188.95;164.63;;;;;;;15.76;28.48;94934.06;5104200;27;20125;-63
2022/03/22 06:35:24;;;;;;;186.52;161.38;;;;;;;15.77;28.54;94932.13;5121002;27;20425;-63
2022/03/22 06:37:51;;;;;;;188.68;162.52;;;;;;;15.77;28.41;94934.81;5121628;27;20043;-62
2022/03/22 06:40:18;;;;;;;188.88;162.73;;;;;;;15.76;28.58;94934.06;5124693;27;20043;-62
2022/03/22 06:42:44;;;;;;;186.23;160.60;;;;;;;15.77;28.39;94940.22;5118156;27;20176;-62
2022/03/22 06:45:10;;;;;;;186.82;160.85;;;;;;;15.78;28.40;94945.19;5123910;27;20118;-62
2022/03/22 06:47:37;;;;;;;187.20;163.15;;;;;;;15.78;28.51;94942.50;5114684;27;20628;-63
2022/03/22 06:50:03;;;;;;;187.85;164.88;;;;;;;15.80;28.34;94944.78;5125636;27;20046;-61
2022/03/22 06:52:29;;;;;;;187.50;163.27;;;;;;;15.80;28.33;94940.13;5117182;27;20402;-61
2022/03/22 06:54:55;;;;;;;189.88;165.82;;;;;;;15.82;28.47;94953.22;5109050;27;20039;-60
2022/03/22 06:57:20;;;;;;;189.13;164.82;;;;;;;15.80;28.51;94952.88;5111318;27;20055;-60
2022/03/22 06:59:46;;;;;;;183.13;160.05;;;;;;;15.81;28.52;94957.84;5114191;27;20133;-61
2022/03/22 07:02:12;;;;;;;187.55;163.52;;;;;;;15.78;28.32;94955.22;5113591;27;20062;-59
2022/03/22 07:04:37;;;;;;;185.23;162.10;;;;;;;15.81;28.49;94951.69;5123707;27;20462;-60
2022/03/22 07:07:03;;;;;;;190.13;162.80;;;;;;;15.81;28.60;94957.84;5122184;27;20048;-59
2022/03/22 07:09:29;;;;;;;185.43;162.13;;;;;;;15.82;28.51;94958.59;5117167;27;20665;-61
2022/03/22 07:11:56;;;;;;;188.90;164.85;;;;;;;15.82;28.60;94958.59;5127360;27;20054;-61
2022/03/22 07:14:24;;;;;;;188.65;163.90;;;;;;;15.82;28.64;94958.59;5109030;27;20051;-61
2022/03/22 07:16:50;;;;;;;185.55;162.88;;;;;;;15.82;28.62;94956.66;5107496;27;20047;-60
2022/03/22 07:19:21;;;;;;;187.15;163.85;;;;;;;15.83;28.65;94962.81;5121815;27;20047;-61
2022/03/22 07:21:47;;;;;;;194.32;169.00;;;;;;;15.84;28.62;94960.88;5112383;27;20042;-61
2022/03/22 07:24:14;;;;;;;198.60;171.07;;;;;;;15.85;28.67;94959.72;5116976;27;20050;-61
2022/03/22 07:26:40;;;;;;;191.73;169.55;;;;;;;15.82;28.65;94953.97;5117074;27;20104;-61
2022/03/22 07:29:07;;;;;;;187.80;162.70;;;;;;;15.81;28.57;94960.53;5125078;27;20104;-61
2022/03/22 07:31:38;;;;;;;188.10;163.68;;;;;;;15.79;28.41;94956.75;5116697;27;20035;-60
2022/03/22 07:34:06;;;;;;;185.95;163.00;;;;;;;15.80;28.47;94971.75;5111550;27;20047;-60
2022/03/22 07:36:33;;;;;;;182.40;160.05;;;;;;;15.80;28.56;94963.66;5110745;27;20097;-61
2022/03/22 07:39:00;;;;;;;190.95;167.27;;;;;;;15.78;28.26;94971.41;5122397;27;20510;-60
2022/03/22 07:41:26;;;;;;;198.90;172.07;;;;;;;15.79;28.50;94967.53;5107882;27;20076;-60
2022/03/22 07:43:54;;;;;;;190.25;164.85;;;;;;;15.77;28.72;94967.19;5120574;27;20139;-60
2022/03/22 07:46:20;;;;;;;182.80;158.93;;;;;;;15.72;28.23;94973.81;5123943;27;20043;-60
2022/03/22 07:48:46;;;;;;;186.07;161.13;;;;;;;15.69;28.36;94965.81;5117827;28;20478;-60
2022/03/22 07:53:55;;;;;;;188.32;164.18;;;;;;;15.71;28.55;94972.28;5116110;27;20031;-61
2022/03/22 07:56:21;;;;;;;190.63;165.40;;;;;;;15.71;28.34;94971.53;5119267;27;20089;-61
2022/03/22 07:58:47;;;;;;;192.43;166.93;;;;;;;15.71;28.42;94974.22;5113530;28;20510;-60
2022/03/22 08:01:12;;;;;;;189.82;164.43;;;;;;;15.73;28.54;94974.59;5120872;27;20498;-60
2022/03/22 08:03:37;;;;;;;194.93;168.57;;;;;;;15.76;28.49;94979.16;5118114;27;20035;-61
2022/03/22 08:06:07;;;;;;;184.63;159.68;;;;;;;15.78;28.42;94977.56;5124523;27;20042;-61
2022/03/22 08:08:33;;;;;;;186.93;159.05;;;;;;;15.81;28.46;94979.41;5110160;27;20039;-60
2022/03/22 08:10:59;;;;;;;186.13;160.18;;;;;;;15.81;28.43;94979.41;5117202;27;20042;-60
2022/03/22 08:13:26;;;;;;;189.98;164.95;;;;;;;15.82;28.62;94978.25;5113032;27;21404;-61
2022/03/22 08:15:51;;;;;;;186.32;163.93;;;;;;;15.82;28.62;94978.25;5135653;27;20042;-61
2022/03/22 08:18:17;;;;;;;188.75;164.85;;;;;;;15.84;28.69;94980.53;5128837;27;20134;-62
2022/03/22 08:20:43;;;;;;;184.50;161.05;;;;;;;15.85;28.55;94981.28;5116961;27;20103;-61
2022/03/22 08:23:09;;;;;;;185.07;158.63;;;;;;;15.85;28.79;94978.59;5119699;27;20467;-61
2022/03/22 08:25:37;;;;;;;192.07;165.73;;;;;;;15.84;28.72;94971.69;5115678;27;20047;-65
2022/03/22 08:28:05;;;;;;;196.80;171.30;;;;;;;15.87;28.67;94985.09;5104301;27;20090;-62
2022/03/22 08:30:32;;;;;;;186.60;162.25;;;;;;;15.87;28.81;94984.34;5116688;27;20051;-60
2022/03/22 08:32:59;;;;;;;187.13;162.50;;;;;;;15.87;28.63;94982.41;5117693;27;20039;-60
2022/03/22 08:35:27;;;;;;;184.35;159.75;;;;;;;15.86;28.74;94980.88;5122346;27;20055;-60
2022/03/22 08:37:53;;;;;;;188.18;165.95;;;;;;;15.88;28.88;94983.16;5126623;27;20050;-61
2022/03/22 08:40:20;;;;;;;190.00;165.48;;;;;;;15.88;28.81;94980.47;5116031;27;20044;-61
2022/03/22 08:42:47;;;;;;;186.25;160.57;;;;;;;15.88;28.87;94983.91;5108675;27;20058;-59
2022/03/22 08:45:15;;;;;;;189.30;163.48;;;;;;;15.87;28.89;94984.34;5121636;27;20046;-60
2022/03/22 08:47:41;;;;;;;189.43;164.05;;;;;;;15.87;28.80;94974.31;5118457;27;20495;-61
2022/03/22 08:50:09;;;;;;;191.75;166.98;;;;;;;15.89;28.80;94981.97;5119832;27;20039;-61
2022/03/22 08:52:36;;;;;;;186.48;161.27;;;;;;;15.88;28.82;94973.13;5120639;27;20086;-60
2022/03/22 08:55:03;;;;;;;188.57;162.38;;;;;;;15.89;28.82;94971.94;5112689;27;20039;-61
2022/03/22 08:57:29;;;;;;;182.10;157.35;;;;;;;15.89;28.81;94963.84;5127137;27;20842;-61
2022/03/22 08:59:55;;;;;;;180.95;159.65;;;;;;;15.90;28.95;94973.47;5114763;27;20043;-61
2022/03/22 09:02:20;;;;;;;187.82;163.63;;;;;;;15.90;28.93;94962.69;5112230;27;20040;-61
2022/03/22 09:07:30;;;;;;;186.90;163.70;;;;;;;15.90;28.85;94962.69;5121187;27;20452;-61
2022/03/22 09:09:57;;;;;;;193.77;168.00;;;;;;;15.90;28.99;94959.22;5122782;27;20062;-61
2022/03/22 09:12:22;;;;;;;186.38;163.27;;;;;;;15.91;28.87;94968.84;5118198;27;20125;-60
2022/03/22 09:14:50;;;;;;;188.50;161.75;;;;;;;15.89;28.84;94955.78;5123485;27;20459;-59
2022/03/22 09:17:15;;;;;;;186.35;161.95;;;;;;;15.89;28.94;94960.41;5125352;27;20096;-60
2022/03/22 09:19:41;;;;;;;186.60;164.48;;;;;;;15.91;28.88;94961.50;5117430;27;20076;-59
2022/03/22 09:22:07;;;;;;;198.13;173.07;;;;;;;15.91;28.81;94958.81;5111177;27;20040;-60
2022/03/22 09:24:34;;;;;;;186.50;159.63;;;;;;;15.91;28.85;94952.66;5122452;27;20038;-61
2022/03/22 09:27:00;;;;;;;186.40;164.02;;;;;;;15.90;28.73;94956.53;5111038;27;20115;-60
2022/03/22 09:29:26;;;;;;;191.15;166.57;;;;;;;15.88;28.67;94948.09;5111388;27;20718;-59
2022/03/22 09:31:52;;;;;;;198.20;172.63;;;;;;;15.87;28.44;94949.25;5112826;27;20047;-60
2022/03/22 09:34:18;;;;;;;202.80;176.27;;;;;;;15.82;27.79;94951.28;5102676;27;20043;-60
2022/03/22 09:36:44;;;;;;;188.55;164.80;;;;;;;15.83;28.17;94943.94;5103431;27;20043;-60
2022/03/22 09:39:09;;;;;;;191.52;168.45;;;;;;;15.87;28.31;94941.19;5116561;27;20403;-60
2022/03/22 09:41:37;;;;;;;194.35;170.63;;;;;;;15.88;28.22;94943.47;5117758;27;20341;-60
2022/03/22 09:44:04;;;;;;;189.15;165.45;;;;;;;15.79;27.84;94938.63;5109326;27;20036;-60
2022/03/22 09:46:32;;;;;;;193.57;170.27;;;;;;;15.80;27.82;94942.06;5114587;27;20388;-60
2022/03/22 09:48:59;;;;;;;194.05;168.70;;;;;;;15.81;27.79;94944.34;5110614;27;20035;-60
2022/03/22 09:54:10;;;;;;;187.93;163.43;;;;;;;15.78;27.41;94936.34;5119331;27;20051;-59
2022/03/22 09:56:35;;;;;;;186.50;165.18;;;;;;;15.77;27.49;94934.81;5120138;27;20038;-59
2022/03/22 09:59:03;;;;;;;186.65;163.75;;;;;;;15.80;27.27;94942.84;5125080;27;20474;-59
2022/03/22 10:01:30;;;;;;;184.82;157.82;;;;;;;15.76;27.20;94939.44;5128792;27;20437;-60
2022/03/22 10:04:01;;;;;;;193.45;169.48;;;;;;;15.74;26.89;94946.44;5110546;27;20512;-60
2022/03/22 10:06:28;;;;;;;185.25;161.40;;;;;;;15.71;26.58;94941.88;5121446;27;20187;-60
2022/03/22 10:08:54;;;;;;;190.07;165.18;;;;;;;15.70;26.36;94935.72;5120709;27;20142;-60
2022/03/22 10:11:20;;;;;;;189.02;165.18;;;;;;;15.72;26.78;94941.47;5124134;27;20058;-60
2022/03/22 10:13:58;;;;;;;191.90;167.45;;;;;;;15.72;26.65;94938.00;5114665;27;20039;-59
2022/03/22 10:16:23;;;;;;;190.68;164.85;;;;;;;15.69;26.74;94936.91;5123709;27;20137;-59
2022/03/22 10:18:49;;;;;;;189.75;164.50;;;;;;;15.70;26.47;94940.34;5117040;27;20779;-60
2022/03/22 10:21:14;;;;;;;204.02;176.18;;;;;;;15.74;26.56;94944.50;5118957;27;20411;-60
2022/03/22 10:23:53;;;;;;;190.65;165.43;;;;;;;15.74;26.52;94932.94;5125861;27;20059;-60
2022/03/22 10:26:19;;;;;;;186.98;162.02;;;;;;;15.76;26.56;94925.97;5128917;27;20055;-60
2022/03/22 10:28:53;;;;;;;182.27;159.68;;;;;;;15.77;26.69;94927.50;5127695;27;20058;-60
2022/03/22 10:31:32;;;;;;;191.05;165.02;;;;;;;15.73;26.49;94929.50;5136266;27;20039;-60
2022/03/22 10:33:58;;;;;;;187.80;163.50;;;;;;;15.72;26.23;94927.22;5118313;27;20129;-60
2022/03/22 10:36:25;;;;;;;198.07;169.32;;;;;;;15.65;26.25;94927.34;5124023;27;20050;-59
2022/03/22 10:38:59;;;;;;;188.68;162.77;;;;;;;15.63;26.48;94919.69;5118465;27;20429;-60
2022/03/22 10:41:37;;;;;;;187.20;162.68;;;;;;;15.66;26.32;94918.09;5125100;27;20047;-60
2022/03/22 10:44:10;;;;;;;185.98;160.18;;;;;;;15.70;26.32;94922.25;5118300;27;20043;-60
2022/03/22 10:46:42;;;;;;;187.00;163.32;;;;;;;15.71;26.25;94915.66;5116808;27;20039;-60
2022/03/22 10:49:13;;;;;;;184.95;157.27;;;;;;;15.71;26.34;94910.28;5119023;27;20059;-60
2022/03/22 10:51:45;;;;;;;198.05;171.98;;;;;;;15.74;26.25;94914.84;5121761;27;20055;-60
2022/03/22 10:54:17;;;;;;;191.52;166.57;;;;;;;15.78;26.40;94914.75;5114084;27;20058;-59
2022/03/22 10:56:50;;;;;;;193.15;166.88;;;;;;;15.77;26.61;94914.00;5122022;27;20054;-60
2022/03/22 10:59:23;;;;;;;190.50;165.77;;;;;;;15.77;26.65;94902.47;5119642;27;20119;-59
2022/03/22 11:01:50;;;;;;;199.45;173.05;;;;;;;15.75;26.44;94902.13;5123611;27;20039;-60
2022/03/22 11:04:17;;;;;;;187.43;164.38;;;;;;;15.74;26.62;94908.69;5121512;27;20043;-60
2022/03/22 11:06:47;;;;;;;191.85;165.85;;;;;;;15.76;26.55;94904.41;5120034;27;20062;-60
2022/03/22 11:09:12;;;;;;;;;;;;;;;15.75;26.41;94902.88;5124308;27;20043;-61
2022/03/22 11:11:38;;;;;;;194.60;164.38;;;;;;;15.76;26.49;94899.00;5115268;27;19926;-60
2022/03/22 11:14:03;;;;;;;202.18;170.30;;;;;;;15.76;26.37;94899.00;5111268;27;20051;-60
2022/03/22 11:16:33;;;;;;;191.15;163.93;;;;;;;15.78;26.63;94895.88;5125025;27;20051;-60
2022/03/22 11:18:59;;;;;;;187.07;163.47;;;;;;;15.78;26.81;94890.50;5116453;27;20176;-59
2022/03/22 11:21:27;;;;;;;188.73;162.93;;;;;;;15.79;26.96;94890.06;5117584;27;20324;-60
2022/03/22 11:24:10;;;;;;;189.50;166.10;;;;;;;15.82;26.83;94888.47;5107093;27;20043;-60
2022/03/22 11:26:51;;;;;;;186.43;162.27;;;;;;;15.82;26.75;94891.19;5106451;27;20095;-60
2022/03/22 11:29:17;;;;;;;192.05;165.00;;;;;;;15.78;26.54;94882.41;5115281;27;20210;-60